createdAt,value
2018-10-03T00:00:31.358Z,0
2018-10-03T00:01:41.066Z,0
2018-10-03T00:02:50.764Z,0
2018-10-03T00:04:00.725Z,0
2018-10-03T00:05:10.419Z,0
2018-10-03T00:06:20.354Z,0
2018-10-03T00:07:30.286Z,0
2018-10-03T00:08:39.962Z,0
2018-10-03T00:09:49.906Z,0
2018-10-03T00:10:59.848Z,0
2018-10-03T00:12:09.819Z,0
2018-10-03T00:13:19.247Z,0
2018-10-03T00:14:29.205Z,0
2018-10-03T00:15:38.891Z,0
2018-10-03T00:16:48.830Z,0
2018-10-03T00:17:58.518Z,0
2018-10-03T00:19:08.211Z,0
2018-10-03T00:20:18.150Z,0
2018-10-03T00:21:28.089Z,0
2018-10-03T00:22:38.031Z,0
2018-10-03T00:23:47.986Z,0
2018-10-03T00:24:57.913Z,0
2018-10-03T00:26:07.910Z,0
2018-10-03T00:27:17.907Z,0
2018-10-03T00:28:27.609Z,0
2018-10-03T00:29:37.564Z,0
2018-10-03T00:30:47.504Z,0
2018-10-03T00:31:57.186Z,0
2018-10-03T00:33:06.872Z,0
2018-10-03T00:34:16.555Z,0
2018-10-03T00:35:26.223Z,0
2018-10-03T00:36:36.158Z,0
2018-10-03T00:37:46.093Z,0
2018-10-03T00:38:56.030Z,0
2018-10-03T00:40:05.988Z,0
2018-10-03T00:41:15.954Z,0
2018-10-03T00:42:25.900Z,0
2018-10-03T00:43:35.845Z,0
2018-10-03T00:44:45.779Z,0
2018-10-03T00:45:55.461Z,0
2018-10-03T00:47:05.417Z,0
2018-10-03T00:48:15.109Z,0
2018-10-03T00:49:25.061Z,0
2018-10-03T00:50:34.999Z,0
2018-10-03T00:51:44.939Z,0
2018-10-03T00:52:54.622Z,0
2018-10-03T00:54:04.591Z,0
2018-10-03T00:55:14.545Z,0
2018-10-03T00:56:24.482Z,0
2018-10-03T00:57:34.405Z,0
2018-10-03T00:58:44.332Z,0
2018-10-03T00:59:54.290Z,0
2018-10-03T01:01:04.250Z,0
2018-10-03T01:02:14.193Z,0
2018-10-03T01:03:24.143Z,0
2018-10-03T01:04:34.071Z,0
2018-10-03T01:05:44.047Z,0
2018-10-03T01:06:53.985Z,0
2018-10-03T01:08:03.677Z,0
2018-10-03T01:09:13.614Z,0
2018-10-03T01:10:23.574Z,0
2018-10-03T01:11:33.271Z,0
2018-10-03T01:12:43.212Z,0
2018-10-03T01:13:52.921Z,0
2018-10-03T01:15:02.865Z,0
2018-10-03T01:16:12.553Z,0
2018-10-03T01:17:22.499Z,0
2018-10-03T01:18:32.179Z,0
2018-10-03T01:19:42.117Z,0
2018-10-03T01:20:51.816Z,0
2018-10-03T01:22:01.514Z,0
2018-10-03T01:23:11.485Z,0
2018-10-03T01:24:21.457Z,0
2018-10-03T01:25:31.402Z,0
2018-10-03T01:26:41.334Z,0
2018-10-03T01:27:51.277Z,0
2018-10-03T01:29:00.959Z,0
2018-10-03T01:30:10.923Z,0
2018-10-03T01:31:20.872Z,0
2018-10-03T01:32:30.805Z,0
2018-10-03T01:33:40.230Z,0
2018-10-03T01:34:49.659Z,0
2018-10-03T01:35:59.374Z,0
2018-10-03T01:37:09.057Z,0
2018-10-03T01:38:19.309Z,0
2018-10-03T01:39:29.318Z,0
2018-10-03T01:40:39.264Z,0
2018-10-03T01:41:48.942Z,0
2018-10-03T01:42:58.642Z,0
2018-10-03T01:44:08.600Z,0
2018-10-03T01:45:18.565Z,0
2018-10-03T01:46:28.252Z,0
2018-10-03T01:47:38.184Z,0
2018-10-03T01:48:47.609Z,0
2018-10-03T01:49:57.312Z,0
2018-10-03T01:51:06.983Z,0
2018-10-03T01:52:16.420Z,0
2018-10-03T01:53:26.368Z,0
2018-10-03T01:54:36.059Z,0
2018-10-03T01:55:46.009Z,0
2018-10-03T01:56:55.948Z,0
2018-10-03T01:58:05.402Z,0
2018-10-03T01:59:15.336Z,0
2018-10-03T02:00:25.286Z,0
2018-10-03T02:01:35.242Z,0
2018-10-03T02:02:44.667Z,0
2018-10-03T02:03:54.617Z,0
2018-10-03T02:05:04.625Z,0
2018-10-03T02:06:14.307Z,0
2018-10-03T02:07:24.273Z,0
2018-10-03T02:08:34.243Z,0
2018-10-03T02:09:44.194Z,0
2018-10-03T02:10:54.155Z,0
2018-10-03T02:12:04.082Z,0
2018-10-03T02:13:13.781Z,0
2018-10-03T02:14:23.727Z,0
2018-10-03T02:15:33.664Z,0
2018-10-03T02:16:43.102Z,0
2018-10-03T02:17:53.054Z,0
2018-10-03T02:19:03.024Z,0
2018-10-03T02:20:12.954Z,0
2018-10-03T02:21:22.378Z,0
2018-10-03T02:22:31.803Z,0
2018-10-03T02:23:41.490Z,0
2018-10-03T02:24:51.422Z,0
2018-10-03T02:26:01.361Z,0
2018-10-03T02:27:11.304Z,0
2018-10-03T02:28:21.562Z,0
2018-10-03T02:29:31.248Z,0
2018-10-03T02:30:40.935Z,0
2018-10-03T02:31:50.888Z,0
2018-10-03T02:33:00.831Z,0
2018-10-03T02:34:10.784Z,0
2018-10-03T02:35:20.198Z,0
2018-10-03T02:36:30.163Z,0
2018-10-03T02:37:39.853Z,0
2018-10-03T02:38:49.811Z,0
2018-10-03T02:39:59.745Z,0
2018-10-03T02:41:09.165Z,0
2018-10-03T02:42:18.595Z,0
2018-10-03T02:43:28.536Z,0
2018-10-03T02:44:38.468Z,0
2018-10-03T02:45:48.155Z,0
2018-10-03T02:46:58.086Z,0
2018-10-03T02:48:08.024Z,0
2018-10-03T02:49:17.731Z,0
2018-10-03T02:50:27.689Z,0
2018-10-03T02:51:37.392Z,0
2018-10-03T02:52:46.823Z,0
2018-10-03T02:53:56.507Z,0
2018-10-03T02:55:06.453Z,0
2018-10-03T02:56:16.387Z,0
2018-10-03T02:57:26.337Z,0
2018-10-03T02:58:36.024Z,0
2018-10-03T02:59:45.971Z,0
2018-10-03T03:00:55.922Z,0
2018-10-03T03:02:05.875Z,0
2018-10-03T03:03:15.565Z,0
2018-10-03T03:04:25.241Z,0
2018-10-03T03:05:35.211Z,0
2018-10-03T03:06:45.156Z,0
2018-10-03T03:07:54.843Z,0
2018-10-03T03:09:04.909Z,0
2018-10-03T03:10:14.914Z,0
2018-10-03T03:11:24.868Z,0
2018-10-03T03:12:34.814Z,0
2018-10-03T03:13:44.772Z,0
2018-10-03T03:14:54.716Z,0
2018-10-03T03:16:04.681Z,0
2018-10-03T03:17:14.639Z,0
2018-10-03T03:18:24.331Z,0
2018-10-03T03:19:34.311Z,0
2018-10-03T03:20:43.997Z,0
2018-10-03T03:21:53.440Z,0
2018-10-03T03:23:03.102Z,0
2018-10-03T03:24:12.808Z,0
2018-10-03T03:25:22.791Z,0
2018-10-03T03:26:32.743Z,0
2018-10-03T03:27:42.693Z,0
2018-10-03T03:28:52.127Z,0
2018-10-03T03:30:01.810Z,0
2018-10-03T03:31:11.776Z,0
2018-10-03T03:32:21.462Z,0
2018-10-03T03:33:31.154Z,0
2018-10-03T03:34:41.100Z,0
2018-10-03T03:35:51.068Z,0
2018-10-03T03:37:01.001Z,0
2018-10-03T03:38:10.943Z,0
2018-10-03T03:39:20.882Z,0
2018-10-03T03:40:30.837Z,0
2018-10-03T03:41:40.819Z,0
2018-10-03T03:42:50.506Z,0
2018-10-03T03:44:00.200Z,0
2018-10-03T03:45:09.889Z,0
2018-10-03T03:46:19.830Z,0
2018-10-03T03:47:29.785Z,0
2018-10-03T03:48:39.473Z,0
2018-10-03T03:49:49.428Z,0
2018-10-03T03:50:59.110Z,0
2018-10-03T03:52:09.065Z,0
2018-10-03T03:53:19.007Z,0
2018-10-03T03:54:28.708Z,0
2018-10-03T03:55:38.661Z,0
2018-10-03T03:56:48.346Z,0
2018-10-03T03:57:58.358Z,0
2018-10-03T03:59:08.063Z,0
2018-10-03T04:00:17.744Z,0
2018-10-03T04:01:27.686Z,0
2018-10-03T04:02:37.646Z,0
2018-10-03T04:03:47.596Z,0
2018-10-03T04:04:57.553Z,0
2018-10-03T04:06:07.488Z,0
2018-10-03T04:07:17.437Z,0
2018-10-03T04:08:26.876Z,0
2018-10-03T04:09:36.809Z,0
2018-10-03T04:10:46.744Z,0
2018-10-03T04:11:56.435Z,0
2018-10-03T04:13:06.110Z,0
2018-10-03T04:14:16.041Z,0
2018-10-03T04:15:25.455Z,0
2018-10-03T04:16:35.383Z,0
2018-10-03T04:17:44.831Z,0
2018-10-03T04:18:54.768Z,0
2018-10-03T04:20:04.454Z,0
2018-10-03T04:21:14.403Z,0
2018-10-03T04:22:24.098Z,0
2018-10-03T04:23:34.054Z,0
2018-10-03T04:24:43.985Z,0
2018-10-03T04:25:53.689Z,0
2018-10-03T04:27:03.654Z,0
2018-10-03T04:28:13.620Z,0
2018-10-03T04:29:23.568Z,0
2018-10-03T04:30:33.245Z,0
2018-10-03T04:31:42.672Z,0
2018-10-03T04:32:52.612Z,0
2018-10-03T04:34:02.548Z,0
2018-10-03T04:35:12.526Z,0
2018-10-03T04:36:22.507Z,0
2018-10-03T04:37:32.456Z,0
2018-10-03T04:38:42.414Z,0
2018-10-03T04:39:52.346Z,0
2018-10-03T04:41:02.283Z,0
2018-10-03T04:42:12.136Z,0
2018-10-03T04:43:22.102Z,0
2018-10-03T04:44:32.041Z,0
2018-10-03T04:45:41.991Z,0
2018-10-03T04:46:51.937Z,0
2018-10-03T04:48:01.877Z,0
2018-10-03T04:49:12.467Z,0
2018-10-03T04:50:22.464Z,0
2018-10-03T04:51:32.397Z,0
2018-10-03T04:52:42.340Z,0
2018-10-03T04:53:52.288Z,0
2018-10-03T04:55:02.250Z,0
2018-10-03T04:56:11.697Z,0
2018-10-03T04:57:21.657Z,0
2018-10-03T04:58:31.329Z,0
2018-10-03T04:59:41.278Z,0
2018-10-03T05:00:51.255Z,0
2018-10-03T05:02:01.229Z,0
2018-10-03T05:03:11.174Z,0
2018-10-03T05:04:21.117Z,5
2018-10-03T05:05:30.813Z,5
2018-10-03T05:06:40.754Z,5
2018-10-03T05:07:50.684Z,5
2018-10-03T05:09:00.366Z,5
2018-10-03T05:10:10.146Z,5
2018-10-03T05:11:20.401Z,10
2018-10-03T05:12:30.095Z,10
2018-10-03T05:13:40.051Z,10
2018-10-03T05:14:49.733Z,5
2018-10-03T05:15:59.679Z,10
2018-10-03T05:17:09.364Z,10
2018-10-03T05:18:19.323Z,10
2018-10-03T05:19:29.257Z,15
2018-10-03T05:20:39.190Z,15
2018-10-03T05:21:49.126Z,20
2018-10-03T05:22:59.071Z,20
2018-10-03T05:24:09.032Z,25
2018-10-03T05:25:18.982Z,30
2018-10-03T05:26:28.678Z,35
2018-10-03T05:27:38.634Z,35
2018-10-03T05:28:48.647Z,40
2018-10-03T05:29:58.329Z,45
2018-10-03T05:31:08.020Z,50
2018-10-03T05:32:17.973Z,55
2018-10-03T05:33:28.504Z,60
2018-10-03T05:34:38.457Z,60
2018-10-03T05:35:48.402Z,65
2018-10-03T05:36:58.362Z,65
2018-10-03T05:38:08.310Z,70
2018-10-03T05:39:18.272Z,70
2018-10-03T05:40:28.263Z,70
2018-10-03T05:41:38.222Z,75
2018-10-03T05:42:48.172Z,75
2018-10-03T05:43:57.853Z,80
2018-10-03T05:45:07.784Z,80
2018-10-03T05:46:17.476Z,80
2018-10-03T05:47:27.423Z,80
2018-10-03T05:48:37.891Z,80
2018-10-03T05:49:47.590Z,80
2018-10-03T05:50:57.540Z,75
2018-10-03T05:52:07.243Z,75
2018-10-03T05:53:17.183Z,75
2018-10-03T05:54:26.866Z,75
2018-10-03T05:55:36.817Z,80
2018-10-03T05:56:46.239Z,75
2018-10-03T05:57:56.199Z,70
2018-10-03T05:59:05.931Z,60
2018-10-03T06:00:15.875Z,50
2018-10-03T06:01:25.561Z,50
2018-10-03T06:02:35.495Z,65
2018-10-03T06:03:45.443Z,80
2018-10-03T06:04:55.403Z,90
2018-10-03T06:06:05.337Z,85
2018-10-03T06:07:15.302Z,80
2018-10-03T06:08:25.252Z,70
2018-10-03T06:09:35.216Z,75
2018-10-03T06:10:45.180Z,80
2018-10-03T06:11:55.148Z,80
2018-10-03T06:13:05.117Z,90
2018-10-03T06:14:14.550Z,105
2018-10-03T06:15:24.243Z,110
2018-10-03T06:16:33.921Z,105
2018-10-03T06:17:43.351Z,105
2018-10-03T06:18:53.564Z,100
2018-10-03T06:20:02.737Z,90
2018-10-03T06:21:12.166Z,90
2018-10-03T06:22:21.342Z,75
2018-10-03T06:23:31.289Z,70
2018-10-03T06:24:40.988Z,85
2018-10-03T06:25:50.942Z,100
2018-10-03T06:27:00.364Z,130
2018-10-03T06:28:10.404Z,125
2018-10-03T06:29:19.845Z,125
2018-10-03T06:30:29.805Z,110
2018-10-03T06:31:39.280Z,120
2018-10-03T06:32:48.964Z,150
2018-10-03T06:33:58.675Z,190
2018-10-03T06:35:08.645Z,205
2018-10-03T06:36:18.598Z,175
2018-10-03T06:37:28.286Z,180
2018-10-03T06:38:38.238Z,220
2018-10-03T06:39:48.181Z,260
2018-10-03T06:40:57.882Z,280
2018-10-03T06:42:07.852Z,290
2018-10-03T06:43:17.564Z,300
2018-10-03T06:44:27.510Z,225
2018-10-03T06:45:37.821Z,160
2018-10-03T06:46:47.853Z,145
2018-10-03T06:47:57.822Z,160
2018-10-03T06:49:07.784Z,175
2018-10-03T06:50:17.931Z,180
2018-10-03T06:51:27.645Z,185
2018-10-03T06:52:37.600Z,180
2018-10-03T06:53:47.028Z,200
2018-10-03T06:54:56.969Z,205
2018-10-03T06:56:06.928Z,185
2018-10-03T06:57:17.291Z,185
2018-10-03T06:58:27.231Z,170
2018-10-03T06:59:37.173Z,155
2018-10-03T07:00:46.859Z,180
2018-10-03T07:01:56.805Z,195
2018-10-03T07:03:06.759Z,205
2018-10-03T07:04:16.745Z,205
2018-10-03T07:05:26.702Z,165
2018-10-03T07:06:36.661Z,145
2018-10-03T07:07:46.618Z,135
2018-10-03T07:08:56.561Z,140
2018-10-03T07:10:06.260Z,125
2018-10-03T07:11:16.199Z,130
2018-10-03T07:12:25.876Z,145
2018-10-03T07:13:35.844Z,170
2018-10-03T07:14:45.819Z,155
2018-10-03T07:15:55.511Z,165
2018-10-03T07:17:05.204Z,220
2018-10-03T07:18:15.165Z,230
2018-10-03T07:19:25.104Z,195
2018-10-03T07:20:35.060Z,170
2018-10-03T07:21:45.027Z,215
2018-10-03T07:22:55.203Z,255
2018-10-03T07:24:05.157Z,335
2018-10-03T07:25:15.116Z,320
2018-10-03T07:26:25.351Z,265
2018-10-03T07:27:35.309Z,240
2018-10-03T07:28:45.050Z,235
2018-10-03T07:29:54.990Z,220
2018-10-03T07:31:04.694Z,200
2018-10-03T07:32:14.124Z,225
2018-10-03T07:33:23.831Z,210
2018-10-03T07:34:33.793Z,180
2018-10-03T07:35:43.471Z,200
2018-10-03T07:36:53.149Z,250
2018-10-03T07:38:03.103Z,245
2018-10-03T07:39:13.060Z,315
2018-10-03T07:40:22.487Z,385
2018-10-03T07:41:32.472Z,375
2018-10-03T07:42:42.418Z,365
2018-10-03T07:43:52.384Z,370
2018-10-03T07:45:02.340Z,380
2018-10-03T07:46:11.982Z,325
2018-10-03T07:47:21.681Z,395
2018-10-03T07:48:31.638Z,350
2018-10-03T07:49:41.609Z,370
2018-10-03T07:50:51.592Z,370
2018-10-03T07:52:01.560Z,330
2018-10-03T07:53:11.502Z,480
2018-10-03T07:54:21.446Z,445
2018-10-03T07:55:31.394Z,395
2018-10-03T07:56:41.352Z,600
2018-10-03T07:57:51.323Z,570
2018-10-03T07:59:01.544Z,605
2018-10-03T08:00:11.578Z,645
2018-10-03T08:01:21.524Z,605
2018-10-03T08:02:31.487Z,650
2018-10-03T08:03:41.458Z,675
2018-10-03T08:04:51.440Z,705
2018-10-03T08:06:01.124Z,725
2018-10-03T08:07:10.819Z,715
2018-10-03T08:08:20.497Z,515
2018-10-03T08:09:30.200Z,680
2018-10-03T08:10:39.897Z,650
2018-10-03T08:11:49.595Z,760
2018-10-03T08:12:59.295Z,800
2018-10-03T08:14:09.243Z,830
2018-10-03T08:15:18.942Z,820
2018-10-03T08:16:28.385Z,825
2018-10-03T08:17:38.578Z,855
2018-10-03T08:18:48.266Z,865
2018-10-03T08:19:58.230Z,895
2018-10-03T08:21:07.955Z,855
2018-10-03T08:22:17.904Z,890
2018-10-03T08:23:27.846Z,880
2018-10-03T08:24:37.890Z,930
2018-10-03T08:25:47.930Z,820
2018-10-03T08:26:57.893Z,970
2018-10-03T08:28:07.324Z,625
2018-10-03T08:29:17.299Z,1050
2018-10-03T08:30:27.280Z,535
2018-10-03T08:31:37.237Z,890
2018-10-03T08:32:47.876Z,495
2018-10-03T08:33:57.739Z,545
2018-10-03T08:35:07.687Z,880
2018-10-03T08:36:17.392Z,520
2018-10-03T08:37:27.353Z,450
2018-10-03T08:38:37.542Z,530
2018-10-03T08:39:47.503Z,1210
2018-10-03T08:40:57.471Z,1150
2018-10-03T08:42:07.426Z,1250
2018-10-03T08:43:17.395Z,1275
2018-10-03T08:44:27.375Z,640
2018-10-03T08:45:37.838Z,575
2018-10-03T08:46:47.838Z,630
2018-10-03T08:47:57.808Z,590
2018-10-03T08:49:07.762Z,625
2018-10-03T08:50:17.722Z,545
2018-10-03T08:51:27.683Z,595
2018-10-03T08:52:37.375Z,560
2018-10-03T08:53:47.366Z,505
2018-10-03T08:54:57.323Z,450
2018-10-03T08:56:07.015Z,365
2018-10-03T08:57:16.714Z,325
2018-10-03T08:58:27.682Z,390
2018-10-03T08:59:37.763Z,490
2018-10-03T09:00:47.461Z,545
2018-10-03T09:01:57.410Z,635
2018-10-03T09:03:07.106Z,550
2018-10-03T09:04:16.796Z,535
2018-10-03T09:05:26.788Z,620
2018-10-03T09:06:36.493Z,675
2018-10-03T09:07:46.429Z,670
2018-10-03T09:08:56.389Z,640
2018-10-03T09:10:06.358Z,575
2018-10-03T09:11:16.311Z,520
2018-10-03T09:12:25.760Z,515
2018-10-03T09:13:35.720Z,470
2018-10-03T09:14:45.684Z,520
2018-10-03T09:15:55.661Z,555
2018-10-03T09:17:05.361Z,570
2018-10-03T09:18:14.814Z,510
2018-10-03T09:19:24.765Z,630
2018-10-03T09:20:34.729Z,1830
2018-10-03T09:21:44.615Z,670
2018-10-03T09:22:54.320Z,730
2018-10-03T09:24:04.333Z,580
2018-10-03T09:25:14.033Z,590
2018-10-03T09:26:23.990Z,625
2018-10-03T09:27:33.696Z,590
2018-10-03T09:28:43.670Z,650
2018-10-03T09:29:53.630Z,980
2018-10-03T09:31:03.585Z,605
2018-10-03T09:32:13.279Z,460
2018-10-03T09:33:23.244Z,415
2018-10-03T09:34:33.196Z,435
2018-10-03T09:35:42.643Z,460
2018-10-03T09:36:52.608Z,475
2018-10-03T09:38:01.799Z,605
2018-10-03T09:39:11.503Z,2085
2018-10-03T09:40:21.202Z,870
2018-10-03T09:41:31.173Z,600
2018-10-03T09:42:40.881Z,515
2018-10-03T09:43:51.238Z,450
2018-10-03T09:45:01.226Z,460
2018-10-03T09:46:11.277Z,510
2018-10-03T09:47:21.245Z,650
2018-10-03T09:48:30.957Z,895
2018-10-03T09:49:40.924Z,1360
2018-10-03T09:50:50.888Z,1185
2018-10-03T09:52:00.841Z,795
2018-10-03T09:53:10.786Z,730
2018-10-03T09:54:20.228Z,1010
2018-10-03T09:55:30.185Z,1500
2018-10-03T09:56:40.134Z,1970
2018-10-03T09:57:49.827Z,2055
2018-10-03T09:58:59.521Z,2035
2018-10-03T10:00:09.238Z,1250
2018-10-03T10:01:19.209Z,2190
2018-10-03T10:02:29.160Z,2185
2018-10-03T10:03:39.129Z,615
2018-10-03T10:04:48.883Z,1170
2018-10-03T10:05:58.852Z,490
2018-10-03T10:07:08.824Z,465
2018-10-03T10:08:18.780Z,570
2018-10-03T10:09:28.480Z,670
2018-10-03T10:10:38.451Z,895
2018-10-03T10:11:48.895Z,540
2018-10-03T10:12:59.012Z,560
2018-10-03T10:14:09.005Z,685
2018-10-03T10:15:18.968Z,835
2018-10-03T10:16:28.671Z,860
2018-10-03T10:17:38.643Z,505
2018-10-03T10:18:48.666Z,455
2018-10-03T10:19:58.653Z,550
2018-10-03T10:21:08.579Z,685
2018-10-03T10:22:18.525Z,800
2018-10-03T10:23:28.507Z,645
2018-10-03T10:24:38.456Z,615
2018-10-03T10:25:48.397Z,815
2018-10-03T10:26:58.094Z,2085
2018-10-03T10:28:07.803Z,970
2018-10-03T10:29:17.511Z,1190
2018-10-03T10:30:27.211Z,1905
2018-10-03T10:31:37.248Z,2420
2018-10-03T10:32:47.718Z,2065
2018-10-03T10:33:57.493Z,1950
2018-10-03T10:35:07.496Z,2430
2018-10-03T10:36:17.476Z,2470
2018-10-03T10:37:27.171Z,2595
2018-10-03T10:38:36.898Z,2725
2018-10-03T10:39:46.863Z,2225
2018-10-03T10:40:56.924Z,1900
2018-10-03T10:42:06.888Z,1425
2018-10-03T10:43:16.678Z,2155
2018-10-03T10:44:26.411Z,1405
2018-10-03T10:45:36.395Z,2380
2018-10-03T10:46:46.768Z,2460
2018-10-03T10:47:56.785Z,2500
2018-10-03T10:49:06.739Z,2735
2018-10-03T10:50:16.519Z,2845
2018-10-03T10:51:26.293Z,920
2018-10-03T10:52:36.261Z,835
2018-10-03T10:53:46.230Z,690
2018-10-03T10:54:56.208Z,530
2018-10-03T10:56:05.898Z,485
2018-10-03T10:57:15.598Z,490
2018-10-03T10:58:25.570Z,555
2018-10-03T10:59:35.595Z,580
2018-10-03T11:00:45.595Z,460
2018-10-03T11:01:55.307Z,425
2018-10-03T11:03:05.285Z,535
2018-10-03T11:04:15.241Z,630
2018-10-03T11:05:25.194Z,565
2018-10-03T11:06:35.355Z,575
2018-10-03T11:07:45.133Z,760
2018-10-03T11:08:55.109Z,1220
2018-10-03T11:10:05.059Z,395
2018-10-03T11:11:14.760Z,485
2018-10-03T11:12:24.720Z,610
2018-10-03T11:13:34.672Z,690
2018-10-03T11:14:44.662Z,705
2018-10-03T11:15:54.370Z,820
2018-10-03T11:17:04.821Z,1900
2018-10-03T11:18:14.834Z,2810
2018-10-03T11:19:24.805Z,995
2018-10-03T11:20:34.510Z,3075
2018-10-03T11:21:44.475Z,1630
2018-10-03T11:22:54.441Z,1055
2018-10-03T11:24:04.964Z,755
2018-10-03T11:25:15.013Z,605
2018-10-03T11:26:24.460Z,370
2018-10-03T11:27:34.420Z,325
2018-10-03T11:28:44.388Z,335
2018-10-03T11:29:54.351Z,295
2018-10-03T11:31:04.070Z,220
2018-10-03T11:32:14.395Z,180
2018-10-03T11:33:24.562Z,190
2018-10-03T11:34:34.533Z,210
2018-10-03T11:35:44.502Z,230
2018-10-03T11:36:54.455Z,245
2018-10-03T11:38:04.505Z,305
2018-10-03T11:39:14.459Z,385
2018-10-03T11:40:24.178Z,485
2018-10-03T11:41:34.152Z,590
2018-10-03T11:42:44.105Z,650
2018-10-03T11:43:54.081Z,2025
2018-10-03T11:45:04.050Z,2270
2018-10-03T11:46:13.752Z,2745
2018-10-03T11:47:23.714Z,2810
2018-10-03T11:48:33.461Z,2820
2018-10-03T11:49:43.177Z,2785
2018-10-03T11:50:53.149Z,2750
2018-10-03T11:52:02.853Z,2695
2018-10-03T11:53:12.032Z,2420
2018-10-03T11:54:22.002Z,2735
2018-10-03T11:55:31.732Z,2780
2018-10-03T11:56:41.690Z,2465
2018-10-03T11:57:51.422Z,2815
2018-10-03T11:59:01.402Z,2555
2018-10-03T12:00:11.426Z,2345
2018-10-03T12:01:21.136Z,2970
2018-10-03T12:02:30.866Z,2960
2018-10-03T12:03:41.133Z,2910
2018-10-03T12:04:51.176Z,2870
2018-10-03T12:06:01.143Z,2940
2018-10-03T12:07:10.866Z,845
2018-10-03T12:08:20.885Z,1460
2018-10-03T12:09:31.337Z,2855
2018-10-03T12:10:41.291Z,2830
2018-10-03T12:11:51.267Z,2830
2018-10-03T12:13:01.220Z,2885
2018-10-03T12:14:11.177Z,2885
2018-10-03T12:15:21.262Z,2935
2018-10-03T12:16:31.248Z,3020
2018-10-03T12:17:41.230Z,2835
2018-10-03T12:18:50.429Z,2810
2018-10-03T12:20:00.155Z,2735
2018-10-03T12:21:10.139Z,2670
2018-10-03T12:22:20.134Z,2745
2018-10-03T12:23:30.110Z,2870
2018-10-03T12:24:40.080Z,2975
2018-10-03T12:25:50.078Z,2980
2018-10-03T12:26:59.807Z,2850
2018-10-03T12:28:09.510Z,2935
2018-10-03T12:29:19.209Z,3265
2018-10-03T12:30:28.636Z,3090
2018-10-03T12:31:38.618Z,640
2018-10-03T12:32:48.061Z,420
2018-10-03T12:33:58.308Z,495
2018-10-03T12:35:08.291Z,2845
2018-10-03T12:36:18.256Z,2785
2018-10-03T12:37:27.952Z,2880
2018-10-03T12:38:37.926Z,545
2018-10-03T12:39:47.642Z,500
2018-10-03T12:40:57.606Z,525
2018-10-03T12:42:07.315Z,1355
2018-10-03T12:43:17.001Z,495
2018-10-03T12:44:26.970Z,425
2018-10-03T12:45:36.939Z,410
2018-10-03T12:46:46.151Z,490
2018-10-03T12:47:55.873Z,3035
2018-10-03T12:49:05.856Z,3100
2018-10-03T12:50:15.816Z,610
2018-10-03T12:51:25.260Z,605
2018-10-03T12:52:35.219Z,560
2018-10-03T12:53:45.167Z,2370
2018-10-03T12:54:55.677Z,425
2018-10-03T12:56:05.720Z,390
2018-10-03T12:57:15.694Z,390
2018-10-03T12:58:25.677Z,440
2018-10-03T12:59:35.140Z,655
2018-10-03T13:00:45.128Z,3040
2018-10-03T13:01:54.829Z,2835
2018-10-03T13:03:04.797Z,2725
2018-10-03T13:04:14.763Z,2840
2018-10-03T13:05:24.720Z,2790
2018-10-03T13:06:34.680Z,2720
2018-10-03T13:07:44.642Z,2830
2018-10-03T13:08:54.593Z,625
2018-10-03T13:10:04.551Z,550
2018-10-03T13:11:13.995Z,450
2018-10-03T13:12:23.958Z,430
2018-10-03T13:13:33.672Z,370
2018-10-03T13:14:43.630Z,340
2018-10-03T13:15:53.587Z,315
2018-10-03T13:17:03.544Z,295
2018-10-03T13:18:13.247Z,295
2018-10-03T13:19:23.231Z,295
2018-10-03T13:20:32.934Z,290
2018-10-03T13:21:42.903Z,305
2018-10-03T13:22:52.875Z,355
2018-10-03T13:24:02.561Z,465
2018-10-03T13:25:12.272Z,630
2018-10-03T13:26:21.962Z,1740
2018-10-03T13:27:31.913Z,705
2018-10-03T13:28:41.878Z,2630
2018-10-03T13:29:51.824Z,3085
2018-10-03T13:31:01.800Z,2865
2018-10-03T13:32:11.511Z,2980
2018-10-03T13:33:20.954Z,2885
2018-10-03T13:34:30.401Z,2820
2018-10-03T13:35:40.371Z,2375
2018-10-03T13:36:50.335Z,2855
2018-10-03T13:38:00.294Z,2800
2018-10-03T13:39:10.011Z,2780
2018-10-03T13:40:19.988Z,1705
2018-10-03T13:41:30.271Z,2800
2018-10-03T13:42:40.236Z,525
2018-10-03T13:43:50.194Z,620
2018-10-03T13:44:59.924Z,660
2018-10-03T13:46:09.910Z,560
2018-10-03T13:47:19.352Z,2515
2018-10-03T13:48:29.065Z,2480
2018-10-03T13:49:39.041Z,2460
2018-10-03T13:50:48.734Z,2355
2018-10-03T13:51:58.724Z,2550
2018-10-03T13:53:08.161Z,2435
2018-10-03T13:54:17.866Z,2270
2018-10-03T13:55:27.842Z,2315
2018-10-03T13:56:37.573Z,2155
2018-10-03T13:57:47.536Z,2210
2018-10-03T13:58:57.510Z,2160
2018-10-03T14:00:07.463Z,880
2018-10-03T14:01:17.424Z,2250
2018-10-03T14:02:27.398Z,2235
2018-10-03T14:03:37.090Z,2345
2018-10-03T14:04:46.524Z,2410
2018-10-03T14:05:56.233Z,905
2018-10-03T14:07:06.191Z,670
2018-10-03T14:08:16.157Z,660
2018-10-03T14:09:25.859Z,2540
2018-10-03T14:10:35.560Z,2470
2018-10-03T14:11:45.546Z,2365
2018-10-03T14:12:55.518Z,2330
2018-10-03T14:14:05.485Z,555
2018-10-03T14:15:15.211Z,2315
2018-10-03T14:16:25.171Z,2135
2018-10-03T14:17:35.143Z,1630
2018-10-03T14:18:45.673Z,1110
2018-10-03T14:19:55.651Z,1950
2018-10-03T14:21:05.613Z,1650
2018-10-03T14:22:15.306Z,1965
2018-10-03T14:23:25.274Z,1860
2018-10-03T14:24:35.750Z,1785
2018-10-03T14:25:45.737Z,1935
2018-10-03T14:26:55.720Z,1925
2018-10-03T14:28:05.688Z,1920
2018-10-03T14:29:15.391Z,1830
2018-10-03T14:30:25.103Z,1690
2018-10-03T14:31:35.088Z,760
2018-10-03T14:32:45.046Z,1695
2018-10-03T14:33:55.022Z,545
2018-10-03T14:35:05.010Z,1060
2018-10-03T14:36:14.987Z,1790
2018-10-03T14:37:24.693Z,600
2018-10-03T14:38:34.681Z,535
2018-10-03T14:39:44.830Z,1650
2018-10-03T14:40:54.322Z,1620
2018-10-03T14:42:04.031Z,1410
2018-10-03T14:43:13.743Z,1635
2018-10-03T14:44:23.715Z,1440
2018-10-03T14:45:33.435Z,1625
2018-10-03T14:46:43.739Z,1690
2018-10-03T14:47:53.804Z,1585
2018-10-03T14:49:03.764Z,1550
2018-10-03T14:50:13.737Z,1240
2018-10-03T14:51:23.708Z,1675
2018-10-03T14:52:34.025Z,1480
2018-10-03T14:53:43.810Z,1425
2018-10-03T14:54:53.503Z,1325
2018-10-03T14:56:03.465Z,1215
2018-10-03T14:57:13.427Z,680
2018-10-03T14:58:23.669Z,1085
2018-10-03T14:59:33.717Z,1450
2018-10-03T15:00:43.678Z,1395
2018-10-03T15:01:54.112Z,1210
2018-10-03T15:03:04.068Z,900
2018-10-03T15:04:13.772Z,915
2018-10-03T15:05:23.748Z,1105
2018-10-03T15:06:33.727Z,1300
2018-10-03T15:07:43.435Z,1335
2018-10-03T15:08:53.116Z,290
2018-10-03T15:10:03.064Z,295
2018-10-03T15:11:13.042Z,320
2018-10-03T15:12:22.749Z,390
2018-10-03T15:13:32.180Z,405
2018-10-03T15:14:41.945Z,475
2018-10-03T15:15:51.611Z,1305
2018-10-03T15:17:01.564Z,1305
2018-10-03T15:18:11.647Z,1210
2018-10-03T15:19:21.668Z,1255
2018-10-03T15:20:31.628Z,1255
2018-10-03T15:21:41.577Z,1190
2018-10-03T15:22:51.537Z,1160
2018-10-03T15:24:01.479Z,245
2018-10-03T15:25:11.435Z,240
2018-10-03T15:26:21.403Z,220
2018-10-03T15:27:31.365Z,210
2018-10-03T15:28:41.063Z,205
2018-10-03T15:29:51.307Z,205
2018-10-03T15:31:01.345Z,210
2018-10-03T15:32:11.307Z,210
2018-10-03T15:33:21.267Z,215
2018-10-03T15:34:31.241Z,220
2018-10-03T15:35:41.435Z,200
2018-10-03T15:36:51.142Z,185
2018-10-03T15:38:00.852Z,190
2018-10-03T15:39:10.553Z,190
2018-10-03T15:40:20.534Z,185
2018-10-03T15:41:30.257Z,185
2018-10-03T15:42:39.954Z,200
2018-10-03T15:43:49.912Z,290
2018-10-03T15:44:59.855Z,845
2018-10-03T15:46:09.834Z,880
2018-10-03T15:47:19.561Z,855
2018-10-03T15:48:29.509Z,410
2018-10-03T15:49:39.490Z,245
2018-10-03T15:50:49.463Z,540
2018-10-03T15:51:59.424Z,215
2018-10-03T15:53:09.131Z,185
2018-10-03T15:54:19.095Z,185
2018-10-03T15:55:29.067Z,380
2018-10-03T15:56:39.041Z,165
2018-10-03T15:57:49.011Z,150
2018-10-03T15:58:58.979Z,180
2018-10-03T16:00:08.683Z,155
2018-10-03T16:01:18.397Z,135
2018-10-03T16:02:28.356Z,125
2018-10-03T16:03:38.058Z,125
2018-10-03T16:04:47.768Z,120
2018-10-03T16:05:57.724Z,110
2018-10-03T16:07:07.700Z,110
2018-10-03T16:08:16.880Z,110
2018-10-03T16:09:26.891Z,110
2018-10-03T16:10:36.883Z,115
2018-10-03T16:11:46.872Z,120
2018-10-03T16:12:56.826Z,110
2018-10-03T16:14:06.795Z,105
2018-10-03T16:15:16.767Z,135
2018-10-03T16:16:26.480Z,105
2018-10-03T16:17:36.432Z,90
2018-10-03T16:18:46.403Z,85